This is the latest recevied weather packets stored in our database for station/object KSRC. If no packets are shown the sender has not sent any weather packets the latest 10 day(s).
| Time | Temp. | Humidity | Pressure | Rain* | Wind** | Luminosity | Snow |
|---|---|---|---|---|---|---|---|
| 1777742019 | 20.56° C | 37% | 1019.6 hPa | - | - | - | - |
| 1777741423 | 20.56° C | 37% | 1019.6 hPa | - | - | - | - |
| 1777740825 | 20.56° C | 35% | 1019.6 hPa | - | - | - | - |
| 1777740224 | 20.56° C | 35% | 1019.6 hPa | - | - | - | - |
| 1777739621 | 20.56° C | 35% | 1019.6 hPa | - | - | - | - |
| 1777739020 | 20.56° C | 35% | 1019.6 hPa | - | - | - | - |
| 1777738422 | 20.56° C | 35% | 1019.6 hPa | - | - | - | - |
| 1777737825 | 20.56° C | 35% | 1019.6 hPa | - | - | - | - |
| 1777737348 | 18.89° C | 42% | 1020 hPa | - | - | - | - |
| 1777736624 | 18.89° C | 42% | 1020 hPa | - | - | - | - |
| 1777736025 | 18.89° C | 42% | 1020 hPa | - | - | - | - |
| 1777735420 | 18.89° C | 42% | 1020 hPa | - | - | - | - |
| 1777734822 | 18.89° C | 42% | 1020 hPa | - | - | - | - |
| 1777734220 | 17.78° C | 48% | 1020 hPa | - | - | - | - |
| 1777733622 | 16.67° C | 48% | 1020 hPa | - | - | - | - |
| 1777733022 | 15° C | 67% | 1020 hPa | - | - | - | - |
| 1777732424 | 15° C | 67% | 1020 hPa | - | - | - | - |
| 1777731821 | 15° C | 67% | 1020 hPa | - | - | - | - |
| 1777731221 | 15° C | 67% | 1020 hPa | - | - | - | - |
| 1777730624 | 15° C | 67% | 1020 hPa | - | - | - | - |
| 1777730024 | 12.78° C | 76% | 1020 hPa | - | - | - | - |
| 1777729421 | 12.78° C | 76% | 1020 hPa | - | - | - | - |
| 1777728825 | 12.78° C | 76% | 1020 hPa | - | - | - | - |
| 1777728224 | 10.56° C | 87% | 1019.6 hPa | - | - | - | - |
| 1777727623 | 10.56° C | 87% | 1019.6 hPa | - | - | - | - |
* Rain since midnight (hover to see other rain measurements)
** Current wind speed in m/s (hover to see current wind gust speed)